sensor_id;sensor_type;location;lat;lon;timestamp;pressure;altitude;pressure_sealevel;temperature
71640;BMP280;60912;48.968;10.124;2024-02-23T00:01:04;94504.28;;;7.66
71640;BMP280;60912;48.968;10.124;2024-02-23T00:03:29;94512.50;;;7.57
71640;BMP280;60912;48.968;10.124;2024-02-23T00:05:54;94523.16;;;7.53
71640;BMP280;60912;48.968;10.124;2024-02-23T00:08:20;94533.13;;;7.58
71640;BMP280;60912;48.968;10.124;2024-02-23T00:10:45;94525.06;;;7.33
71640;BMP280;60912;48.968;10.124;2024-02-23T00:13:11;94545.41;;;7.13
71640;BMP280;60912;48.968;10.124;2024-02-23T00:15:36;94540.78;;;7.06
71640;BMP280;60912;48.968;10.124;2024-02-23T00:18:02;94571.44;;;7.04
71640;BMP280;60912;48.968;10.124;2024-02-23T00:20:29;94569.09;;;7.01
71640;BMP280;60912;48.968;10.124;2024-02-23T00:22:54;94568.78;;;6.97
71640;BMP280;60912;48.968;10.124;2024-02-23T00:25:20;94572.22;;;6.97
71640;BMP280;60912;48.968;10.124;2024-02-23T00:27:45;94571.69;;;6.99
71640;BMP280;60912;48.968;10.124;2024-02-23T00:30:12;94544.03;;;6.95
71640;BMP280;60912;48.968;10.124;2024-02-23T00:32:38;94549.56;;;6.87
71640;BMP280;60912;48.968;10.124;2024-02-23T00:35:03;94561.41;;;6.90
71640;BMP280;60912;48.968;10.124;2024-02-23T00:37:29;94561.25;;;6.70
71640;BMP280;60912;48.968;10.124;2024-02-23T00:39:54;94557.34;;;6.73
71640;BMP280;60912;48.968;10.124;2024-02-23T00:42:20;94569.31;;;6.68
71640;BMP280;60912;48.968;10.124;2024-02-23T00:44:46;94565.66;;;6.66
71640;BMP280;60912;48.968;10.124;2024-02-23T00:47:11;94579.09;;;6.71
71640;BMP280;60912;48.968;10.124;2024-02-23T00:49:37;94585.25;;;6.79
71640;BMP280;60912;48.968;10.124;2024-02-23T00:52:02;94586.59;;;6.88
71640;BMP280;60912;48.968;10.124;2024-02-23T00:54:27;94598.44;;;6.91
71640;BMP280;60912;48.968;10.124;2024-02-23T00:56:53;94595.38;;;7.04
71640;BMP280;60912;48.968;10.124;2024-02-23T00:59:18;94601.47;;;7.12
71640;BMP280;60912;48.968;10.124;2024-02-23T01:01:44;94603.91;;;7.08
71640;BMP280;60912;48.968;10.124;2024-02-23T01:04:09;94609.13;;;6.96
71640;BMP280;60912;48.968;10.124;2024-02-23T01:06:34;94604.22;;;6.77
71640;BMP280;60912;48.968;10.124;2024-02-23T01:08:59;94610.03;;;6.81
71640;BMP280;60912;48.968;10.124;2024-02-23T01:11:25;94593.72;;;6.83
71640;BMP280;60912;48.968;10.124;2024-02-23T01:13:50;94592.91;;;6.81
71640;BMP280;60912;48.968;10.124;2024-02-23T01:16:16;94605.84;;;6.80
71640;BMP280;60912;48.968;10.124;2024-02-23T01:18:41;94605.72;;;6.71
71640;BMP280;60912;48.968;10.124;2024-02-23T01:21:07;94604.03;;;6.58
71640;BMP280;60912;48.968;10.124;2024-02-23T01:23:33;94604.53;;;6.64
71640;BMP280;60912;48.968;10.124;2024-02-23T01:25:58;94605.03;;;6.70
71640;BMP280;60912;48.968;10.124;2024-02-23T01:28:25;94613.72;;;6.76
71640;BMP280;60912;48.968;10.124;2024-02-23T01:30:50;94614.31;;;6.92
71640;BMP280;60912;48.968;10.124;2024-02-23T01:33:16;94624.03;;;6.68
71640;BMP280;60912;48.968;10.124;2024-02-23T01:35:41;94614.97;;;6.58
71640;BMP280;60912;48.968;10.124;2024-02-23T01:38:06;94610.78;;;6.40
71640;BMP280;60912;48.968;10.124;2024-02-23T01:40:32;94612.16;;;6.48
71640;BMP280;60912;48.968;10.124;2024-02-23T01:43:06;94609.94;;;6.55
71640;BMP280;60912;48.968;10.124;2024-02-23T01:45:32;94607.75;;;6.53
71640;BMP280;60912;48.968;10.124;2024-02-23T01:47:58;94605.47;;;6.59
71640;BMP280;60912;48.968;10.124;2024-02-23T01:50:25;94597.28;;;6.59
71640;BMP280;60912;48.968;10.124;2024-02-23T01:52:51;94595.97;;;6.60
71640;BMP280;60912;48.968;10.124;2024-02-23T01:55:20;94614.84;;;6.73
71640;BMP280;60912;48.968;10.124;2024-02-23T01:57:45;94614.94;;;6.66
71640;BMP280;60912;48.968;10.124;2024-02-23T02:00:16;94611.19;;;6.71
71640;BMP280;60912;48.968;10.124;2024-02-23T02:02:43;94610.25;;;6.76
71640;BMP280;60912;48.968;10.124;2024-02-23T02:05:08;94621.09;;;6.83
71640;BMP280;60912;48.968;10.124;2024-02-23T02:07:34;94627.31;;;6.84
71640;BMP280;60912;48.968;10.124;2024-02-23T02:09:59;94623.06;;;6.91
71640;BMP280;60912;48.968;10.124;2024-02-23T02:12:28;94619.81;;;6.50
71640;BMP280;60912;48.968;10.124;2024-02-23T02:14:53;94623.91;;;6.41
71640;BMP280;60912;48.968;10.124;2024-02-23T02:17:19;94630.09;;;6.42
71640;BMP280;60912;48.968;10.124;2024-02-23T02:19:47;94632.72;;;6.32
71640;BMP280;60912;48.968;10.124;2024-02-23T02:22:13;94638.47;;;6.44
71640;BMP280;60912;48.968;10.124;2024-02-23T02:24:38;94636.31;;;6.60
71640;BMP280;60912;48.968;10.124;2024-02-23T02:27:07;94636.81;;;6.66
71640;BMP280;60912;48.968;10.124;2024-02-23T02:29:35;94638.19;;;6.74
71640;BMP280;60912;48.968;10.124;2024-02-23T02:32:00;94637.97;;;6.80
71640;BMP280;60912;48.968;10.124;2024-02-23T02:34:25;94641.00;;;6.84
71640;BMP280;60912;48.968;10.124;2024-02-23T02:36:51;94635.22;;;6.80
71640;BMP280;60912;48.968;10.124;2024-02-23T02:39:16;94639.47;;;6.73
71640;BMP280;60912;48.968;10.124;2024-02-23T02:41:41;94646.22;;;6.72
71640;BMP280;60912;48.968;10.124;2024-02-23T02:44:07;94645.84;;;6.76
71640;BMP280;60912;48.968;10.124;2024-02-23T02:46:34;94643.19;;;6.85
71640;BMP280;60912;48.968;10.124;2024-02-23T02:49:00;94635.97;;;6.80
71640;BMP280;60912;48.968;10.124;2024-02-23T02:51:26;94642.28;;;6.66
71640;BMP280;60912;48.968;10.124;2024-02-23T02:53:51;94642.31;;;6.58
71640;BMP280;60912;48.968;10.124;2024-02-23T02:56:16;94626.34;;;6.55
71640;BMP280;60912;48.968;10.124;2024-02-23T02:58:42;94635.75;;;6.61
71640;BMP280;60912;48.968;10.124;2024-02-23T03:01:07;94639.75;;;6.60
71640;BMP280;60912;48.968;10.124;2024-02-23T03:03:34;94639.03;;;6.60
71640;BMP280;60912;48.968;10.124;2024-02-23T03:05:59;94646.88;;;6.63
71640;BMP280;60912;48.968;10.124;2024-02-23T03:08:24;94666.38;;;6.67
71640;BMP280;60912;48.968;10.124;2024-02-23T03:10:51;94661.03;;;6.69
71640;BMP280;60912;48.968;10.124;2024-02-23T03:13:16;94664.25;;;6.75
71640;BMP280;60912;48.968;10.124;2024-02-23T03:15:42;94650.97;;;6.72
71640;BMP280;60912;48.968;10.124;2024-02-23T03:18:07;94662.03;;;6.81
71640;BMP280;60912;48.968;10.124;2024-02-23T03:20:34;94663.97;;;6.88
71640;BMP280;60912;48.968;10.124;2024-02-23T03:23:00;94663.56;;;6.92
71640;BMP280;60912;48.968;10.124;2024-02-23T03:25:26;94671.28;;;6.86
71640;BMP280;60912;48.968;10.124;2024-02-23T03:27:51;94672.47;;;6.75
71640;BMP280;60912;48.968;10.124;2024-02-23T03:30:16;94676.19;;;6.70
71640;BMP280;60912;48.968;10.124;2024-02-23T03:32:42;94667.47;;;6.64
71640;BMP280;60912;48.968;10.124;2024-02-23T03:35:07;94665.94;;;6.71
71640;BMP280;60912;48.968;10.124;2024-02-23T03:37:33;94653.53;;;6.53
71640;BMP280;60912;48.968;10.124;2024-02-23T03:39:58;94662.47;;;6.53
71640;BMP280;60912;48.968;10.124;2024-02-23T03:42:27;94655.53;;;6.52
71640;BMP280;60912;48.968;10.124;2024-02-23T03:44:52;94665.75;;;6.52
71640;BMP280;60912;48.968;10.124;2024-02-23T03:47:18;94670.41;;;6.59
71640;BMP280;60912;48.968;10.124;2024-02-23T03:49:43;94659.66;;;6.61
71640;BMP280;60912;48.968;10.124;2024-02-23T03:52:09;94659.91;;;6.55
71640;BMP280;60912;48.968;10.124;2024-02-23T03:54:34;94656.47;;;6.47
71640;BMP280;60912;48.968;10.124;2024-02-23T03:56:59;94674.88;;;6.46
71640;BMP280;60912;48.968;10.124;2024-02-23T03:59:25;94679.06;;;6.55
71640;BMP280;60912;48.968;10.124;2024-02-23T04:01:50;94699.22;;;6.60
71640;BMP280;60912;48.968;10.124;2024-02-23T04:04:15;94700.78;;;6.53
71640;BMP280;60912;48.968;10.124;2024-02-23T04:06:41;94689.81;;;6.53
71640;BMP280;60912;48.968;10.124;2024-02-23T04:09:06;94698.59;;;6.52
71640;BMP280;60912;48.968;10.124;2024-02-23T04:11:33;94706.25;;;6.53
71640;BMP280;60912;48.968;10.124;2024-02-23T04:13:59;94702.22;;;6.54
71640;BMP280;60912;48.968;10.124;2024-02-23T04:16:26;94693.47;;;6.56
71640;BMP280;60912;48.968;10.124;2024-02-23T04:18:51;94701.41;;;6.61
71640;BMP280;60912;48.968;10.124;2024-02-23T04:21:17;94697.13;;;6.51
71640;BMP280;60912;48.968;10.124;2024-02-23T04:23:43;94690.03;;;6.47
71640;BMP280;60912;48.968;10.124;2024-02-23T04:26:08;94687.03;;;6.36
71640;BMP280;60912;48.968;10.124;2024-02-23T04:28:34;94702.69;;;6.43
71640;BMP280;60912;48.968;10.124;2024-02-23T04:30:59;94717.94;;;6.46
71640;BMP280;60912;48.968;10.124;2024-02-23T04:33:26;94719.66;;;6.41
71640;BMP280;60912;48.968;10.124;2024-02-23T04:35:51;94703.69;;;6.55
71640;BMP280;60912;48.968;10.124;2024-02-23T04:38:16;94702.16;;;6.62
71640;BMP280;60912;48.968;10.124;2024-02-23T04:40:42;94706.88;;;6.61
71640;BMP280;60912;48.968;10.124;2024-02-23T04:43:07;94705.78;;;6.64
71640;BMP280;60912;48.968;10.124;2024-02-23T04:45:32;94696.41;;;6.50
71640;BMP280;60912;48.968;10.124;2024-02-23T04:47:58;94685.09;;;6.46
71640;BMP280;60912;48.968;10.124;2024-02-23T04:50:23;94692.13;;;6.39
71640;BMP280;60912;48.968;10.124;2024-02-23T04:52:48;94694.63;;;6.45
71640;BMP280;60912;48.968;10.124;2024-02-23T04:55:15;94689.81;;;6.53
71640;BMP280;60912;48.968;10.124;2024-02-23T04:57:40;94694.94;;;6.49
71640;BMP280;60912;48.968;10.124;2024-02-23T05:00:06;94696.56;;;6.52
71640;BMP280;60912;48.968;10.124;2024-02-23T05:02:33;94701.53;;;6.46
71640;BMP280;60912;48.968;10.124;2024-02-23T05:05:02;94690.56;;;6.46
71640;BMP280;60912;48.968;10.124;2024-02-23T05:07:30;94683.19;;;6.39
71640;BMP280;60912;48.968;10.124;2024-02-23T05:09:55;94669.84;;;6.43
71640;BMP280;60912;48.968;10.124;2024-02-23T05:12:20;94670.84;;;6.30
71640;BMP280;60912;48.968;10.124;2024-02-23T05:14:46;94684.09;;;6.34
71640;BMP280;60912;48.968;10.124;2024-02-23T05:17:11;94684.81;;;6.42
71640;BMP280;60912;48.968;10.124;2024-02-23T05:19:36;94662.94;;;6.42
71640;BMP280;60912;48.968;10.124;2024-02-23T05:22:02;94658.22;;;6.35
71640;BMP280;60912;48.968;10.124;2024-02-23T05:24:28;94668.50;;;6.27
71640;BMP280;60912;48.968;10.124;2024-02-23T05:26:54;94657.22;;;6.23
71640;BMP280;60912;48.968;10.124;2024-02-23T05:29:19;94654.41;;;6.05
71640;BMP280;60912;48.968;10.124;2024-02-23T05:31:49;94665.34;;;6.05
71640;BMP280;60912;48.968;10.124;2024-02-23T05:34:15;94666.97;;;6.08
71640;BMP280;60912;48.968;10.124;2024-02-23T05:36:40;94670.97;;;6.07
71640;BMP280;60912;48.968;10.124;2024-02-23T05:39:06;94681.00;;;6.13
71640;BMP280;60912;48.968;10.124;2024-02-23T05:41:33;94678.03;;;6.18
71640;BMP280;60912;48.968;10.124;2024-02-23T05:43:58;94672.78;;;6.13
71640;BMP280;60912;48.968;10.124;2024-02-23T05:46:24;94672.59;;;6.11
71640;BMP280;60912;48.968;10.124;2024-02-23T05:48:49;94682.63;;;6.08
71640;BMP280;60912;48.968;10.124;2024-02-23T05:51:14;94686.22;;;5.93
71640;BMP280;60912;48.968;10.124;2024-02-23T05:53:40;94696.97;;;5.91
71640;BMP280;60912;48.968;10.124;2024-02-23T05:56:06;94715.31;;;5.98
71640;BMP280;60912;48.968;10.124;2024-02-23T05:58:31;94713.09;;;6.04
71640;BMP280;60912;48.968;10.124;2024-02-23T06:00:56;94709.53;;;5.94
71640;BMP280;60912;48.968;10.124;2024-02-23T06:03:22;94720.09;;;5.90
71640;BMP280;60912;48.968;10.124;2024-02-23T06:05:47;94736.69;;;5.92
71640;BMP280;60912;48.968;10.124;2024-02-23T06:08:13;94748.16;;;5.91
71640;BMP280;60912;48.968;10.124;2024-02-23T06:10:38;94759.09;;;5.91
71640;BMP280;60912;48.968;10.124;2024-02-23T06:13:04;94749.63;;;5.92
71640;BMP280;60912;48.968;10.124;2024-02-23T06:15:29;94734.31;;;5.89
71640;BMP280;60912;48.968;10.124;2024-02-23T06:17:54;94739.75;;;5.96
71640;BMP280;60912;48.968;10.124;2024-02-23T06:20:20;94738.63;;;6.07
71640;BMP280;60912;48.968;10.124;2024-02-23T06:22:45;94738.63;;;6.07
71640;BMP280;60912;48.968;10.124;2024-02-23T06:25:10;94741.72;;;6.03
71640;BMP280;60912;48.968;10.124;2024-02-23T06:27:36;94730.94;;;6.13
71640;BMP280;60912;48.968;10.124;2024-02-23T06:30:02;94738.16;;;6.26
71640;BMP280;60912;48.968;10.124;2024-02-23T06:32:28;94741.06;;;6.28
71640;BMP280;60912;48.968;10.124;2024-02-23T06:34:54;94748.28;;;6.33
71640;BMP280;60912;48.968;10.124;2024-02-23T06:37:19;94741.72;;;6.36
71640;BMP280;60912;48.968;10.124;2024-02-23T06:39:45;94742.81;;;6.33
71640;BMP280;60912;48.968;10.124;2024-02-23T06:42:15;94741.25;;;6.22
71640;BMP280;60912;48.968;10.124;2024-02-23T06:44:40;94751.81;;;6.26
71640;BMP280;60912;48.968;10.124;2024-02-23T06:47:06;94751.66;;;6.24
71640;BMP280;60912;48.968;10.124;2024-02-23T06:49:31;94748.00;;;6.29
71640;BMP280;60912;48.968;10.124;2024-02-23T06:51:57;94742.63;;;6.38
71640;BMP280;60912;48.968;10.124;2024-02-23T06:54:22;94740.44;;;6.37
71640;BMP280;60912;48.968;10.124;2024-02-23T06:56:48;94744.28;;;6.34
71640;BMP280;60912;48.968;10.124;2024-02-23T06:59:13;94749.25;;;6.28
71640;BMP280;60912;48.968;10.124;2024-02-23T07:01:50;94749.25;;;6.28
71640;BMP280;60912;48.968;10.124;2024-02-23T07:04:15;94753.28;;;6.27
71640;BMP280;60912;48.968;10.124;2024-02-23T07:06:40;94747.84;;;6.19
71640;BMP280;60912;48.968;10.124;2024-02-23T07:09:06;94748.44;;;6.10
71640;BMP280;60912;48.968;10.124;2024-02-23T07:11:31;94750.63;;;6.12
71640;BMP280;60912;48.968;10.124;2024-02-23T07:13:56;94748.94;;;6.16
71640;BMP280;60912;48.968;10.124;2024-02-23T07:16:22;94757.13;;;6.24
71640;BMP280;60912;48.968;10.124;2024-02-23T07:18:47;94756.34;;;6.31
71640;BMP280;60912;48.968;10.124;2024-02-23T07:21:12;94766.41;;;6.28
71640;BMP280;60912;48.968;10.124;2024-02-23T07:23:38;94782.09;;;6.28
71640;BMP280;60912;48.968;10.124;2024-02-23T07:26:03;94810.53;;;6.25
71640;BMP280;60912;48.968;10.124;2024-02-23T07:28:29;94803.00;;;6.33
71640;BMP280;60912;48.968;10.124;2024-02-23T07:30:54;94797.34;;;6.38
71640;BMP280;60912;48.968;10.124;2024-02-23T07:33:19;94785.84;;;6.40
71640;BMP280;60912;48.968;10.124;2024-02-23T07:35:45;94792.59;;;6.39
71640;BMP280;60912;48.968;10.124;2024-02-23T07:38:10;94796.78;;;6.40
71640;BMP280;60912;48.968;10.124;2024-02-23T07:40:35;94790.16;;;6.51
71640;BMP280;60912;48.968;10.124;2024-02-23T07:43:01;94784.97;;;6.62
71640;BMP280;60912;48.968;10.124;2024-02-23T07:45:26;94798.19;;;6.73
71640;BMP280;60912;48.968;10.124;2024-02-23T07:47:51;94801.28;;;6.77
71640;BMP280;60912;48.968;10.124;2024-02-23T07:50:17;94806.03;;;6.77
71640;BMP280;60912;48.968;10.124;2024-02-23T07:52:44;94807.66;;;6.80
71640;BMP280;60912;48.968;10.124;2024-02-23T07:55:09;94796.72;;;6.80
71640;BMP280;60912;48.968;10.124;2024-02-23T07:57:34;94796.28;;;6.83
71640;BMP280;60912;48.968;10.124;2024-02-23T08:00:00;94784.94;;;6.95
71640;BMP280;60912;48.968;10.124;2024-02-23T08:02:26;94790.25;;;6.93
71640;BMP280;60912;48.968;10.124;2024-02-23T08:04:52;94782.66;;;7.01
71640;BMP280;60912;48.968;10.124;2024-02-23T08:07:17;94787.59;;;7.02
71640;BMP280;60912;48.968;10.124;2024-02-23T08:09:42;94792.25;;;7.09
71640;BMP280;60912;48.968;10.124;2024-02-23T08:12:08;94793.00;;;7.10
71640;BMP280;60912;48.968;10.124;2024-02-23T08:14:33;94797.00;;;7.09
71640;BMP280;60912;48.968;10.124;2024-02-23T08:16:59;94795.56;;;7.08
71640;BMP280;60912;48.968;10.124;2024-02-23T08:19:24;94807.41;;;6.93
71640;BMP280;60912;48.968;10.124;2024-02-23T08:21:50;94804.09;;;6.95
71640;BMP280;60912;48.968;10.124;2024-02-23T08:24:15;94800.19;;;7.05
71640;BMP280;60912;48.968;10.124;2024-02-23T08:26:41;94802.19;;;7.22
71640;BMP280;60912;48.968;10.124;2024-02-23T08:29:07;94803.03;;;7.32
71640;BMP280;60912;48.968;10.124;2024-02-23T08:31:34;94799.81;;;7.43
71640;BMP280;60912;48.968;10.124;2024-02-23T08:33:59;94803.22;;;7.51
71640;BMP280;60912;48.968;10.124;2024-02-23T08:36:24;94800.25;;;7.57
71640;BMP280;60912;48.968;10.124;2024-02-23T08:38:50;94796.78;;;7.56
71640;BMP280;60912;48.968;10.124;2024-02-23T08:41:15;94797.19;;;7.53
71640;BMP280;60912;48.968;10.124;2024-02-23T08:43:40;94809.66;;;7.46
71640;BMP280;60912;48.968;10.124;2024-02-23T08:46:06;94814.97;;;7.44
71640;BMP280;60912;48.968;10.124;2024-02-23T08:48:31;94823.91;;;7.45
71640;BMP280;60912;48.968;10.124;2024-02-23T08:50:57;94822.72;;;7.38
71640;BMP280;60912;48.968;10.124;2024-02-23T08:53:22;94828.56;;;7.35
71640;BMP280;60912;48.968;10.124;2024-02-23T08:55:47;94828.00;;;7.19
71640;BMP280;60912;48.968;10.124;2024-02-23T08:58:13;94827.28;;;7.18
71640;BMP280;60912;48.968;10.124;2024-02-23T09:00:38;94824.63;;;7.28
71640;BMP280;60912;48.968;10.124;2024-02-23T09:03:04;94825.63;;;7.40
71640;BMP280;60912;48.968;10.124;2024-02-23T09:05:29;94815.59;;;7.35
71640;BMP280;60912;48.968;10.124;2024-02-23T09:07:54;94816.13;;;7.41
71640;BMP280;60912;48.968;10.124;2024-02-23T09:10:20;94819.31;;;7.47
71640;BMP280;60912;48.968;10.124;2024-02-23T09:12:45;94822.22;;;7.49
71640;BMP280;60912;48.968;10.124;2024-02-23T09:15:11;94822.41;;;7.51
71640;BMP280;60912;48.968;10.124;2024-02-23T09:17:36;94814.19;;;7.51
71640;BMP280;60912;48.968;10.124;2024-02-23T09:20:02;94812.41;;;7.63
71640;BMP280;60912;48.968;10.124;2024-02-23T09:22:27;94823.94;;;7.79
71640;BMP280;60912;48.968;10.124;2024-02-23T09:24:56;94825.94;;;7.79
71640;BMP280;60912;48.968;10.124;2024-02-23T09:27:22;94832.16;;;7.79
71640;BMP280;60912;48.968;10.124;2024-02-23T09:29:47;94838.53;;;7.82
71640;BMP280;60912;48.968;10.124;2024-02-23T09:32:12;94827.56;;;7.64
71640;BMP280;60912;48.968;10.124;2024-02-23T09:34:38;94835.06;;;7.81
71640;BMP280;60912;48.968;10.124;2024-02-23T09:37:03;94835.19;;;8.00
71640;BMP280;60912;48.968;10.124;2024-02-23T09:39:28;94832.31;;;7.98
71640;BMP280;60912;48.968;10.124;2024-02-23T09:41:55;94828.38;;;7.92
71640;BMP280;60912;48.968;10.124;2024-02-23T09:44:22;94836.78;;;7.94
71640;BMP280;60912;48.968;10.124;2024-02-23T09:46:47;94836.78;;;7.94
71640;BMP280;60912;48.968;10.124;2024-02-23T09:49:14;94827.69;;;8.01
71640;BMP280;60912;48.968;10.124;2024-02-23T09:51:40;94830.44;;;8.18
71640;BMP280;60912;48.968;10.124;2024-02-23T09:54:06;94831.22;;;8.28
71640;BMP280;60912;48.968;10.124;2024-02-23T09:56:32;94839.63;;;8.30
71640;BMP280;60912;48.968;10.124;2024-02-23T09:59:01;94833.13;;;8.08
71640;BMP280;60912;48.968;10.124;2024-02-23T10:01:29;94843.53;;;7.93
71640;BMP280;60912;48.968;10.124;2024-02-23T10:04:02;94854.03;;;7.87
71640;BMP280;60912;48.968;10.124;2024-02-23T10:06:31;94858.47;;;7.82
71640;BMP280;60912;48.968;10.124;2024-02-23T10:08:57;94856.13;;;7.96
71640;BMP280;60912;48.968;10.124;2024-02-23T10:11:23;94857.59;;;7.97
71640;BMP280;60912;48.968;10.124;2024-02-23T10:13:50;94852.09;;;7.97
71640;BMP280;60912;48.968;10.124;2024-02-23T10:16:16;94851.13;;;8.19
71640;BMP280;60912;48.968;10.124;2024-02-23T10:18:42;94858.19;;;8.22
71640;BMP280;60912;48.968;10.124;2024-02-23T10:21:07;94851.88;;;8.12
71640;BMP280;60912;48.968;10.124;2024-02-23T10:23:32;94857.72;;;8.16
71640;BMP280;60912;48.968;10.124;2024-02-23T10:25:58;94860.56;;;8.35
71640;BMP280;60912;48.968;10.124;2024-02-23T10:28:23;94870.69;;;8.33
71640;BMP280;60912;48.968;10.124;2024-02-23T10:30:48;94872.22;;;8.26
71640;BMP280;60912;48.968;10.124;2024-02-23T10:33:14;94873.34;;;8.23
71640;BMP280;60912;48.968;10.124;2024-02-23T10:35:40;94867.56;;;8.02
71640;BMP280;60912;48.968;10.124;2024-02-23T10:38:08;94869.19;;;8.05
71640;BMP280;60912;48.968;10.124;2024-02-23T10:40:39;94872.25;;;8.09
71640;BMP280;60912;48.968;10.124;2024-02-23T10:43:11;94861.56;;;8.13
71640;BMP280;60912;48.968;10.124;2024-02-23T10:45:38;94869.63;;;8.11
71640;BMP280;60912;48.968;10.124;2024-02-23T10:48:06;94871.59;;;8.18
71640;BMP280;60912;48.968;10.124;2024-02-23T10:50:32;94866.59;;;8.07
71640;BMP280;60912;48.968;10.124;2024-02-23T10:52:58;94875.97;;;7.87
71640;BMP280;60912;48.968;10.124;2024-02-23T10:55:25;94857.25;;;7.93
71640;BMP280;60912;48.968;10.124;2024-02-23T10:57:52;94852.72;;;8.05
71640;BMP280;60912;48.968;10.124;2024-02-23T11:00:21;94858.91;;;8.23
71640;BMP280;60912;48.968;10.124;2024-02-23T11:02:51;94852.53;;;8.20
71640;BMP280;60912;48.968;10.124;2024-02-23T11:05:18;94852.84;;;8.24
71640;BMP280;60912;48.968;10.124;2024-02-23T11:07:46;94854.00;;;8.21
71640;BMP280;60912;48.968;10.124;2024-02-23T11:10:15;94851.88;;;8.12
71640;BMP280;60912;48.968;10.124;2024-02-23T11:12:40;94856.16;;;8.23
71640;BMP280;60912;48.968;10.124;2024-02-23T11:15:06;94858.50;;;8.26
71640;BMP280;60912;48.968;10.124;2024-02-23T11:17:32;94854.41;;;8.18
71640;BMP280;60912;48.968;10.124;2024-02-23T11:19:58;94851.56;;;8.25
71640;BMP280;60912;48.968;10.124;2024-02-23T11:22:32;94853.00;;;8.26
71640;BMP280;60912;48.968;10.124;2024-02-23T11:25:03;94859.28;;;8.36
71640;BMP280;60912;48.968;10.124;2024-02-23T11:27:31;94854.22;;;8.33
71640;BMP280;60912;48.968;10.124;2024-02-23T11:30:02;94858.00;;;8.37
71640;BMP280;60912;48.968;10.124;2024-02-23T11:32:42;94863.66;;;8.39
71640;BMP280;60912;48.968;10.124;2024-02-23T11:35:10;94855.91;;;8.45
71640;BMP280;60912;48.968;10.124;2024-02-23T11:40:12;94861.31;;;8.63
71640;BMP280;60912;48.968;10.124;2024-02-23T11:42:38;94864.56;;;8.51
71640;BMP280;60912;48.968;10.124;2024-02-23T11:45:05;94856.19;;;8.49
71640;BMP280;60912;48.968;10.124;2024-02-23T11:47:31;94865.31;;;8.52
71640;BMP280;60912;48.968;10.124;2024-02-23T11:49:56;94853.78;;;8.36
71640;BMP280;60912;48.968;10.124;2024-02-23T11:52:21;94854.44;;;8.44
71640;BMP280;60912;48.968;10.124;2024-02-23T11:54:47;94857.00;;;8.60
71640;BMP280;60912;48.968;10.124;2024-02-23T11:57:12;94846.25;;;8.90
71640;BMP280;60912;48.968;10.124;2024-02-23T11:59:40;94855.00;;;8.97
71640;BMP280;60912;48.968;10.124;2024-02-23T12:02:06;94858.59;;;8.99
71640;BMP280;60912;48.968;10.124;2024-02-23T12:04:32;94851.53;;;8.96
71640;BMP280;60912;48.968;10.124;2024-02-23T12:06:57;94851.72;;;8.81
71640;BMP280;60912;48.968;10.124;2024-02-23T12:09:23;94848.44;;;8.56
71640;BMP280;60912;48.968;10.124;2024-02-23T12:11:49;94843.63;;;8.46
71640;BMP280;60912;48.968;10.124;2024-02-23T12:14:15;94849.56;;;8.52
71640;BMP280;60912;48.968;10.124;2024-02-23T12:16:40;94847.59;;;8.63
71640;BMP280;60912;48.968;10.124;2024-02-23T12:19:07;94848.59;;;8.58
71640;BMP280;60912;48.968;10.124;2024-02-23T12:21:34;94834.88;;;8.58
71640;BMP280;60912;48.968;10.124;2024-02-23T12:24:04;94824.16;;;8.62
71640;BMP280;60912;48.968;10.124;2024-02-23T12:26:30;94818.69;;;8.62
71640;BMP280;60912;48.968;10.124;2024-02-23T12:29:00;94817.25;;;8.61
71640;BMP280;60912;48.968;10.124;2024-02-23T12:31:26;94821.88;;;8.58
71640;BMP280;60912;48.968;10.124;2024-02-23T12:33:51;94827.41;;;8.68
71640;BMP280;60912;48.968;10.124;2024-02-23T12:36:17;94824.16;;;8.62
71640;BMP280;60912;48.968;10.124;2024-02-23T12:38:43;94821.59;;;8.64
71640;BMP280;60912;48.968;10.124;2024-02-23T12:41:09;94822.72;;;8.87
71640;BMP280;60912;48.968;10.124;2024-02-23T12:43:34;94814.44;;;8.78
71640;BMP280;60912;48.968;10.124;2024-02-23T12:46:00;94817.63;;;8.84
71640;BMP280;60912;48.968;10.124;2024-02-23T12:48:28;94815.03;;;8.86
71640;BMP280;60912;48.968;10.124;2024-02-23T12:50:53;94819.22;;;8.87
71640;BMP280;60912;48.968;10.124;2024-02-23T12:53:35;94806.53;;;8.91
71640;BMP280;60912;48.968;10.124;2024-02-23T12:56:06;94811.59;;;8.95
71640;BMP280;60912;48.968;10.124;2024-02-23T12:58:35;94813.28;;;8.81
71640;BMP280;60912;48.968;10.124;2024-02-23T13:01:01;94814.91;;;8.84
71640;BMP280;60912;48.968;10.124;2024-02-23T13:03:27;94817.22;;;8.87
71640;BMP280;60912;48.968;10.124;2024-02-23T13:05:54;94816.44;;;8.77
71640;BMP280;60912;48.968;10.124;2024-02-23T13:08:21;94811.53;;;8.76
71640;BMP280;60912;48.968;10.124;2024-02-23T13:10:46;94815.19;;;8.88
71640;BMP280;60912;48.968;10.124;2024-02-23T13:13:12;94815.34;;;8.90
71640;BMP280;60912;48.968;10.124;2024-02-23T13:15:40;94803.53;;;8.97
71640;BMP280;60912;48.968;10.124;2024-02-23T13:18:06;94803.56;;;9.16
71640;BMP280;60912;48.968;10.124;2024-02-23T13:20:31;94810.69;;;9.38
71640;BMP280;60912;48.968;10.124;2024-02-23T13:22:57;94807.94;;;9.38
71640;BMP280;60912;48.968;10.124;2024-02-23T13:25:22;94805.47;;;9.33
71640;BMP280;60912;48.968;10.124;2024-02-23T13:27:47;94805.59;;;9.16
71640;BMP280;60912;48.968;10.124;2024-02-23T13:30:13;94810.91;;;9.04
71640;BMP280;60912;48.968;10.124;2024-02-23T13:32:39;94812.19;;;9.03
71640;BMP280;60912;48.968;10.124;2024-02-23T13:35:04;94808.88;;;9.05
71640;BMP280;60912;48.968;10.124;2024-02-23T13:37:31;94807.44;;;9.13
71640;BMP280;60912;48.968;10.124;2024-02-23T13:39:57;94803.13;;;9.20
71640;BMP280;60912;48.968;10.124;2024-02-23T13:42:23;94811.97;;;8.82
71640;BMP280;60912;48.968;10.124;2024-02-23T13:44:48;94804.38;;;8.63
71640;BMP280;60912;48.968;10.124;2024-02-23T13:47:13;94796.47;;;8.67
71640;BMP280;60912;48.968;10.124;2024-02-23T13:49:39;94793.34;;;8.80
71640;BMP280;60912;48.968;10.124;2024-02-23T13:52:04;94793.06;;;8.86
71640;BMP280;60912;48.968;10.124;2024-02-23T13:54:30;94778.34;;;9.01
71640;BMP280;60912;48.968;10.124;2024-02-23T13:56:55;94787.94;;;9.28
71640;BMP280;60912;48.968;10.124;2024-02-23T13:59:20;94773.97;;;9.34
71640;BMP280;60912;48.968;10.124;2024-02-23T14:01:46;94754.00;;;9.43
71640;BMP280;60912;48.968;10.124;2024-02-23T14:04:11;94758.44;;;9.19